Time;durP1;ratioP1;P1;durP2;ratioP2;P2;SDS_P1;SDS_P2;PMS_P1;PMS_P2;Temp;Humidity;BMP_temperature;BMP_pressure;BME280_temperature;BME280_humidity;BME280_pressure;Samples;Min_cycle;Max_cycle;Signal;HPM_P1;HPM_P2
2022/06/01 00:01:06;;;;;;;32.65;29.98;;;;;;;16.91;100.00;101137.34;5017371;28;20088;-81
2022/06/01 00:03:38;;;;;;;32.05;29.55;;;;;;;16.74;100.00;101131.88;5013190;28;20533;-80
2022/06/01 00:06:05;;;;;;;29.77;27.15;;;;;;;16.62;100.00;101136.44;5017440;28;20104;-80
2022/06/01 00:08:34;;;;;;;31.67;29.17;;;;;;;16.32;100.00;101121.31;5020450;28;20541;-81
2022/06/01 00:11:01;;;;;;;28.73;26.10;;;;;;;15.58;100.00;101132.41;5015481;28;20119;-79
2022/06/01 00:13:29;;;;;;;27.52;25.27;;;;;;;15.93;100.00;101129.00;5020895;28;20445;-79
2022/06/01 00:15:56;;;;;;;29.77;27.38;;;;;;;16.43;100.00;101133.06;5017910;28;20112;-79
2022/06/01 00:18:24;;;;;;;30.52;27.88;;;;;;;16.54;100.00;101134.13;5009547;28;20058;-79
2022/06/01 00:20:52;;;;;;;29.83;27.05;;;;;;;16.17;100.00;101129.81;5019957;28;20108;-80
2022/06/01 00:23:20;;;;;;;31.27;28.65;;;;;;;16.42;100.00;101131.44;5021009;28;20404;-82
2022/06/01 00:25:48;;;;;;;28.90;26.58;;;;;;;16.52;100.00;101131.69;5019179;28;20061;-81
2022/06/01 00:28:15;;;;;;;29.65;27.42;;;;;;;16.52;100.00;101130.84;5017272;28;20132;-81
2022/06/01 00:30:42;;;;;;;31.23;28.80;;;;;;;15.90;100.00;101129.47;5017306;28;20543;-81
2022/06/01 00:33:10;;;;;;;30.13;27.80;;;;;;;16.33;100.00;101122.94;5012100;28;20054;-78
2022/06/01 00:35:37;;;;;;;29.52;27.02;;;;;;;16.34;100.00;101118.38;5011385;28;20112;-80
2022/06/01 00:38:04;;;;;;;29.90;27.10;;;;;;;16.51;100.00;101119.31;5020927;28;20054;-81
2022/06/01 00:40:32;;;;;;;33.42;30.27;;;;;;;16.53;100.00;101119.91;5017382;28;20069;-81
2022/06/01 00:43:01;;;;;;;33.22;30.10;;;;;;;16.25;100.00;101115.28;5019851;28;20537;-81
2022/06/01 00:45:30;;;;;;;30.80;28.00;;;;;;;15.69;100.00;101117.44;5020349;28;20046;-80
2022/06/01 00:47:57;;;;;;;33.25;30.15;;;;;;;16.30;100.00;101119.91;5018793;28;20057;-81
2022/06/01 00:50:28;;;;;;;32.00;29.02;;;;;;;16.46;100.00;101120.03;5012819;28;20485;-80
2022/06/01 00:52:58;;;;;;;33.60;30.70;;;;;;;16.23;100.00;101120.03;5016927;28;20453;-80
2022/06/01 00:55:32;;;;;;;30.92;28.33;;;;;;;15.95;100.00;101116.19;5017021;28;20061;-81
2022/06/01 00:58:05;;;;;;;30.65;27.83;;;;;;;15.87;100.00;101124.56;5016980;28;20120;-81
2022/06/01 01:00:38;;;;;;;30.98;28.50;;;;;;;16.07;100.00;101112.69;5015181;28;20085;-81
2022/06/01 01:03:10;;;;;;;33.50;30.75;;;;;;;15.98;100.00;101106.88;5009779;28;20182;-80
2022/06/01 01:05:40;;;;;;;32.15;29.33;;;;;;;15.96;100.00;101120.50;5018310;28;20562;-82
2022/06/01 01:08:07;;;;;;;30.50;27.98;;;;;;;15.59;100.00;101114.47;5008859;28;20541;-80
2022/06/01 01:10:40;;;;;;;31.08;28.58;;;;;;;15.81;100.00;101109.41;5022613;28;20054;-82
2022/06/01 01:13:14;;;;;;;31.83;29.15;;;;;;;15.76;100.00;101106.59;5017019;28;20045;-80
2022/06/01 01:15:51;;;;;;;30.77;27.90;;;;;;;15.54;100.00;101109.78;5018129;28;20441;-81
2022/06/01 01:18:22;;;;;;;32.00;29.50;;;;;;;15.79;100.00;101101.63;5011309;28;20042;-80
2022/06/01 01:20:58;;;;;;;34.17;31.20;;;;;;;15.87;100.00;101100.47;5024032;28;20053;-81
2022/06/01 01:23:38;;;;;;;35.97;32.83;;;;;;;15.91;100.00;101098.94;5017153;28;20107;-81
2022/06/01 01:26:09;;;;;;;34.30;31.30;;;;;;;15.92;100.00;101097.91;5016788;28;20054;-81
2022/06/01 01:28:39;;;;;;;34.22;31.42;;;;;;;15.91;100.00;101092.75;5020576;28;20053;-80
2022/06/01 01:31:16;;;;;;;34.15;31.10;;;;;;;15.29;100.00;101096.59;5018954;28;20045;-84
2022/06/01 01:33:47;;;;;;;32.13;28.75;;;;;;;15.48;100.00;101096.50;4991403;28;20439;-81
2022/06/01 01:36:18;;;;;;;42.90;38.42;;;;;;;15.08;100.00;101094.41;5017025;28;20054;-82
2022/06/01 01:38:54;;;;;;;47.50;42.47;;;;;;;15.56;100.00;101099.69;5018093;28;20057;-82
2022/06/01 01:41:31;;;;;;;49.17;40.92;;;;;;;15.64;100.00;101095.03;5023950;28;20485;-81
2022/06/01 01:44:02;;;;;;;50.53;42.40;;;;;;;15.40;100.00;101092.31;5015990;28;20050;-81
2022/06/01 01:46:34;;;;;;;62.30;47.90;;;;;;;15.61;100.00;101090.13;5024617;28;20100;-82
2022/06/01 01:49:08;;;;;;;64.27;51.30;;;;;;;15.67;100.00;101095.41;5026435;28;20382;-79
2022/06/01 01:51:39;;;;;;;66.65;54.17;;;;;;;15.63;100.00;101096.09;5015976;28;20375;-81
2022/06/01 01:54:24;;;;;;;65.72;52.53;;;;;;;14.98;100.00;101094.16;5018539;28;20037;-80
2022/06/01 01:57:10;;;;;;;63.83;43.78;;;;;;;14.54;100.00;101102.25;5026704;28;20053;-81
2022/06/01 01:59:52;;;;;;;65.10;46.97;;;;;;;14.50;100.00;101103.72;5007972;28;20050;-79
2022/06/01 02:02:24;;;;;;;64.93;49.60;;;;;;;15.25;100.00;101102.59;5148353;22;20435;-83
2022/06/01 02:07:51;;;;;;;67.00;53.67;;;;;;;15.38;100.00;101090.91;5041809;28;20100;-81
2022/06/01 02:13:05;;;;;;;78.97;62.58;;;;;;;15.35;100.00;101095.66;5038715;28;20060;-80
2022/06/01 02:15:34;;;;;;;65.68;51.67;;;;;;;15.19;100.00;101090.13;5038867;28;20489;-80
2022/06/01 02:18:06;;;;;;;71.38;52.90;;;;;;;15.35;100.00;101089.50;5046269;28;20477;-80
2022/06/01 02:20:40;;;;;;;63.10;51.28;;;;;;;15.00;100.00;101090.19;5036093;28;20104;-80
2022/06/01 02:23:11;;;;;;;63.10;48.15;;;;;;;15.16;100.00;101094.09;5047742;28;20059;-80
2022/06/01 02:25:39;;;;;;;58.83;48.90;;;;;;;15.37;100.00;101089.25;5047385;28;20124;-81
2022/06/01 02:28:07;;;;;;;60.88;45.83;;;;;;;15.44;100.00;101096.16;5044427;28;20049;-81
2022/06/01 02:30:39;;;;;;;60.63;44.08;;;;;;;15.37;100.00;101090.09;5043216;28;20543;-80
2022/06/01 02:33:09;;;;;;;61.17;44.40;;;;;;;15.03;100.00;101095.06;5043249;28;20053;-79
2022/06/01 02:35:40;;;;;;;57.78;41.80;;;;;;;14.53;100.00;101097.16;5039934;28;20045;-82
2022/06/01 02:38:12;;;;;;;59.75;41.20;;;;;;;14.47;100.00;101109.50;5044890;28;20049;-79
2022/06/01 02:40:39;;;;;;;61.50;41.72;;;;;;;14.66;100.00;101105.81;5040083;28;20053;-80
2022/06/01 02:43:08;;;;;;;59.88;41.33;;;;;;;15.18;100.00;101100.03;5039153;28;20124;-79
2022/06/01 02:45:36;;;;;;;57.30;40.83;;;;;;;15.02;100.00;101109.50;5034842;28;20056;-81
2022/06/01 02:48:05;;;;;;;59.25;41.58;;;;;;;15.12;100.00;101100.94;5045260;28;20041;-79
2022/06/01 02:50:36;;;;;;;53.63;43.47;;;;;;;15.20;100.00;101107.84;5040776;28;20114;-81
2022/06/01 02:53:04;;;;;;;56.35;42.95;;;;;;;15.32;100.00;101112.19;5044382;28;20045;-80
2022/06/01 02:55:33;;;;;;;57.90;45.08;;;;;;;15.27;100.00;101114.72;5041806;28;20139;-79
2022/06/01 02:58:00;;;;;;;56.90;40.15;;;;;;;14.37;100.00;101119.88;5046072;28;20122;-81
2022/06/01 03:00:32;;;;;;;54.88;38.97;;;;;;;14.87;100.00;101112.56;5037584;28;20058;-80
2022/06/01 03:03:01;;;;;;;57.45;42.28;;;;;;;15.03;100.00;101105.78;5048014;28;20072;-80
2022/06/01 03:05:31;;;;;;;39.85;35.13;;;;;;;15.07;100.00;101114.19;5043355;28;20056;-80
2022/06/01 03:07:59;;;;;;;33.83;31.05;;;;;;;15.01;100.00;101117.75;5048079;28;20045;-80
2022/06/01 03:10:28;;;;;;;39.65;36.53;;;;;;;14.87;100.00;101115.25;5038609;28;20056;-80
2022/06/01 03:12:55;;;;;;;38.72;35.55;;;;;;;15.13;100.00;101105.25;5043082;28;20057;-80
2022/06/01 03:15:25;;;;;;;42.13;38.83;;;;;;;15.43;100.00;101110.59;5047368;28;20049;-81
2022/06/01 03:17:54;;;;;;;36.95;34.15;;;;;;;15.83;100.00;101117.22;5041410;28;20083;-80
2022/06/01 03:20:24;;;;;;;39.30;36.25;;;;;;;16.01;100.00;101104.56;5046508;28;20060;-82
2022/06/01 03:22:51;;;;;;;39.53;36.65;;;;;;;15.99;100.00;101108.50;5055670;28;20049;-81
2022/06/01 03:25:23;;;;;;;34.75;32.17;;;;;;;15.82;100.00;101112.91;5052103;28;20057;-84
2022/06/01 03:27:51;;;;;;;35.25;32.47;;;;;;;15.69;100.00;101116.63;5042072;28;20141;-82
2022/06/01 03:30:21;;;;;;;37.58;34.92;;;;;;;16.08;100.00;101109.78;5055665;28;20060;-80
2022/06/01 03:32:50;;;;;;;35.38;32.90;;;;;;;16.14;100.00;101116.91;5050045;28;20048;-82
2022/06/01 03:35:21;;;;;;;34.58;31.83;;;;;;;16.34;100.00;101107.66;5053172;28;20111;-85
2022/06/01 03:37:49;;;;;;;42.28;38.92;;;;;;;16.27;100.00;101105.94;5048979;28;20060;-82
2022/06/01 03:40:19;;;;;;;39.17;36.38;;;;;;;16.48;100.00;101117.09;5047901;28;20045;-81
2022/06/01 03:42:47;;;;;;;41.47;38.25;;;;;;;16.68;100.00;101106.00;5053653;28;20056;-82
2022/06/01 03:48:00;;;;;;;43.50;39.92;;;;;;;16.67;100.00;101102.50;5044444;28;20052;-84
2022/06/01 03:50:30;;;;;;;41.03;37.65;;;;;;;16.65;100.00;101103.78;5035433;28;20057;-81
2022/06/01 03:52:57;;;;;;;42.78;39.38;;;;;;;16.87;100.00;101107.50;5036137;28;20144;-82
2022/06/01 03:55:24;;;;;;;40.10;37.17;;;;;;;16.99;100.00;101115.50;5039865;28;20053;-82
2022/06/01 03:57:56;;;;;;;45.90;42.38;;;;;;;17.05;100.00;101108.38;5052581;28;20052;-84
2022/06/01 04:00:26;;;;;;;38.50;35.80;;;;;;;16.84;100.00;101109.84;5042881;28;20053;-82
2022/06/01 04:02:54;;;;;;;46.38;41.53;;;;;;;17.25;100.00;101114.13;5017031;28;20045;-84
2022/06/01 04:05:23;;;;;;;52.92;47.88;;;;;;;17.20;100.00;101111.34;5023619;28;20132;-85
2022/06/01 04:07:57;;;;;;;53.40;47.60;;;;;;;17.41;100.00;101115.22;5035664;28;20045;-84
2022/06/01 04:10:24;;;;;;;61.25;46.80;;;;;;;17.56;100.00;101120.84;5019011;28;20065;-82
2022/06/01 04:12:51;;;;;;;32.50;29.90;;;;;;;17.35;100.00;101129.59;5035113;28;20057;-83
2022/06/01 04:15:19;;;;;;;31.77;29.23;;;;;;;17.18;100.00;101134.91;5030387;28;20053;-83
2022/06/01 04:18:26;;;;;;;33.47;30.48;;;;;;;17.95;100.00;101133.59;5032937;28;20046;-83
2022/06/01 04:21:04;;;;;;;33.08;30.27;;;;;;;17.99;100.00;101137.41;5023343;28;20049;-83
2022/06/01 04:23:35;;;;;;;33.58;30.92;;;;;;;17.99;100.00;101140.91;5016311;28;20073;-80
2022/06/01 04:26:02;;;;;;;32.45;29.30;;;;;;;17.95;100.00;101141.66;5019013;28;20111;-80
2022/06/01 04:28:31;;;;;;;33.35;30.35;;;;;;;18.05;100.00;101145.31;5015639;28;20053;-81
2022/06/01 04:31:01;;;;;;;32.50;29.63;;;;;;;18.26;100.00;101143.75;5044206;28;20065;-85
2022/06/01 04:33:33;;;;;;;34.28;31.52;;;;;;;18.44;100.00;101139.16;5032615;28;20045;-83
2022/06/01 04:36:00;;;;;;;32.20;29.60;;;;;;;18.56;100.00;101144.44;5018428;28;20057;-80
2022/06/01 04:38:30;;;;;;;37.03;33.72;;;;;;;18.74;100.00;101142.28;5030024;28;20050;-83
2022/06/01 04:40:58;;;;;;;33.88;30.80;;;;;;;18.87;100.00;101154.53;5021052;28;20060;-82
2022/06/01 04:43:25;;;;;;;32.40;29.58;;;;;;;18.86;100.00;101157.50;5025299;28;20045;-81
2022/06/01 04:45:52;;;;;;;34.22;31.17;;;;;;;18.93;100.00;101155.41;5025060;28;20058;-83
2022/06/01 04:48:22;;;;;;;33.33;30.23;;;;;;;19.19;100.00;101153.84;5024755;28;20046;-83
2022/06/01 04:50:49;;;;;;;34.30;31.27;;;;;;;19.34;100.00;101159.41;5020364;28;20049;-84
2022/06/01 04:53:18;;;;;;;35.08;32.28;;;;;;;19.48;100.00;101154.41;5032296;28;20063;-82
2022/06/01 04:55:48;;;;;;;31.77;29.02;;;;;;;19.76;100.00;101150.66;5047214;28;20539;-84
2022/06/01 04:58:16;;;;;;;34.05;31.30;;;;;;;20.04;100.00;101146.03;5035168;28;20045;-83
2022/06/01 05:00:45;;;;;;;33.80;30.73;;;;;;;19.61;100.00;101161.28;5021151;28;20053;-85
2022/06/01 05:03:19;;;;;;;32.78;30.17;;;;;;;19.90;100.00;101156.44;5037405;28;20076;-84
2022/06/01 05:05:47;;;;;;;34.13;30.90;;;;;;;19.86;100.00;101153.44;5068356;28;20538;-84
2022/06/01 05:08:16;;;;;;;32.95;29.80;;;;;;;20.16;100.00;101162.84;5073712;28;20052;-83
2022/06/01 05:10:44;;;;;;;33.25;30.35;;;;;;;20.25;100.00;101155.06;5054264;28;20055;-83
2022/06/01 05:13:12;;;;;;;35.20;31.92;;;;;;;20.13;100.00;101155.25;5057030;28;20068;-85
2022/06/01 05:15:53;;;;;;;34.33;30.67;;;;;;;20.04;100.00;101154.13;5062754;28;20057;-84
2022/06/01 05:18:22;;;;;;;35.03;31.90;;;;;;;20.30;100.00;101158.63;5066208;28;20044;-82
2022/06/01 05:20:55;;;;;;;33.08;30.20;;;;;;;20.61;100.00;101158.03;5067797;28;20052;-82
2022/06/01 05:23:24;;;;;;;33.05;30.02;;;;;;;20.21;100.00;101162.03;5065166;28;20102;-83
2022/06/01 05:25:55;;;;;;;34.55;31.25;;;;;;;20.63;100.00;101156.66;5066458;28;20135;-84
2022/06/01 05:28:27;;;;;;;34.25;30.98;;;;;;;20.83;100.00;101161.34;5066689;28;20377;-82
2022/06/01 05:30:59;;;;;;;32.92;30.13;;;;;;;20.78;100.00;101151.31;5065641;28;20053;-83
2022/06/01 05:33:26;;;;;;;32.78;30.13;;;;;;;21.11;100.00;101152.00;5066464;28;20083;-82
2022/06/01 05:35:53;;;;;;;34.17;31.15;;;;;;;21.42;100.00;101147.53;5063951;28;20109;-84
2022/06/01 05:38:20;;;;;;;35.55;32.15;;;;;;;21.26;100.00;101143.94;5065488;28;20117;-81
2022/06/01 05:40:47;;;;;;;35.00;32.03;;;;;;;21.28;100.00;101144.47;5062463;28;20048;-80
2022/06/01 05:43:16;;;;;;;35.17;32.47;;;;;;;21.35;100.00;101132.59;5063998;28;20049;-80
2022/06/01 05:45:43;;;;;;;34.90;31.92;;;;;;;21.46;100.00;101140.50;5063757;28;20059;-84
2022/06/01 05:48:12;;;;;;;34.60;31.50;;;;;;;21.45;100.00;101141.59;5065802;28;20048;-82
2022/06/01 05:50:40;;;;;;;35.83;32.65;;;;;;;21.23;100.00;101135.56;5062472;28;20114;-81
2022/06/01 05:53:07;;;;;;;34.42;31.52;;;;;;;21.32;100.00;101138.53;5063212;28;20119;-81
2022/06/01 05:55:36;;;;;;;35.55;32.22;;;;;;;21.46;100.00;101136.97;5067658;28;20535;-83
2022/06/01 05:58:03;;;;;;;34.85;32.05;;;;;;;21.36;100.00;101134.25;5063863;28;20136;-83
2022/06/01 06:00:29;;;;;;;35.95;32.78;;;;;;;21.62;100.00;101137.81;5067076;28;20448;-82
2022/06/01 06:02:56;;;;;;;35.70;32.42;;;;;;;21.90;100.00;101139.16;5070402;28;20114;-83
2022/06/01 06:08:08;;;;;;;35.25;32.38;;;;;;;21.98;100.00;101132.41;5064765;28;20049;-81
2022/06/01 06:10:35;;;;;;;35.33;32.63;;;;;;;22.03;100.00;101126.97;5066333;28;20052;-80
2022/06/01 06:13:02;;;;;;;34.72;32.15;;;;;;;21.91;100.00;101129.97;5059011;28;20488;-82
2022/06/01 06:15:28;;;;;;;36.03;33.03;;;;;;;22.40;100.00;101127.47;5067555;28;20106;-81
2022/06/01 06:17:55;;;;;;;37.13;34.03;;;;;;;22.64;100.00;101132.28;5063379;28;20047;-83
2022/06/01 06:20:22;;;;;;;37.20;34.25;;;;;;;22.48;100.00;101144.22;5066919;28;20060;-82
2022/06/01 06:22:50;;;;;;;37.17;34.42;;;;;;;22.88;100.00;101126.22;5066155;28;20421;-83
2022/06/01 06:25:17;;;;;;;38.38;35.78;;;;;;;23.08;100.00;101128.81;5064915;28;20040;-81
2022/06/01 06:27:44;;;;;;;37.33;34.92;;;;;;;23.14;100.00;101135.03;5070939;28;20049;-82
2022/06/01 06:30:11;;;;;;;40.08;36.60;;;;;;;23.09;100.00;101133.19;5070253;28;20079;-80
2022/06/01 06:32:38;;;;;;;38.08;35.20;;;;;;;23.06;100.00;101139.97;5062846;28;20044;-81
2022/06/01 06:35:06;;;;;;;37.67;35.17;;;;;;;23.03;100.00;101140.53;5073574;28;20522;-82
2022/06/01 06:37:32;;;;;;;34.47;31.83;;;;;;;23.18;100.00;101134.22;5070659;28;20113;-81
2022/06/01 06:40:01;;;;;;;38.10;35.03;;;;;;;23.55;100.00;101133.69;5070098;28;20044;-81
2022/06/01 06:42:27;;;;;;;36.08;33.38;;;;;;;23.48;100.00;101130.47;5068032;28;20056;-82
2022/06/01 06:44:54;;;;;;;39.28;35.88;;;;;;;23.47;100.00;101128.84;5064050;28;20064;-83
2022/06/01 06:50:45;;;;;;;36.88;33.65;;;;;;;23.28;100.00;101117.88;5066931;28;20494;-82
2022/06/01 06:53:12;;;;;;;35.58;33.08;;;;;;;23.66;100.00;101115.44;5069451;28;20055;-84
2022/06/01 06:55:40;;;;;;;34.95;32.67;;;;;;;23.77;100.00;101105.31;5071418;28;20571;-85
2022/06/01 06:58:09;;;;;;;37.10;34.25;;;;;;;23.77;100.00;101100.72;5070823;28;20057;-83
2022/06/01 07:00:36;;;;;;;37.60;35.05;;;;;;;23.92;100.00;101105.19;5066012;28;20075;-83
2022/06/01 07:03:03;;;;;;;38.22;35.53;;;;;;;24.14;100.00;101112.81;5068582;28;20049;-83
2022/06/01 07:08:14;;;;;;;33.17;30.73;;;;;;;23.87;100.00;101107.94;5066424;28;20178;-83
2022/06/01 07:10:42;;;;;;;32.35;30.05;;;;;;;24.30;100.00;101109.94;5066205;28;20053;-83
2022/06/01 07:13:09;;;;;;;33.05;30.70;;;;;;;24.83;100.00;101120.75;5064925;28;20053;-83
2022/06/01 07:15:36;;;;;;;30.45;28.35;;;;;;;24.82;100.00;101114.50;5062424;28;20393;-83
2022/06/01 07:18:03;;;;;;;28.83;26.58;;;;;;;24.91;100.00;101125.53;5072101;28;20058;-82
2022/06/01 07:20:30;;;;;;;31.08;28.85;;;;;;;25.06;100.00;101113.66;5067258;28;20136;-81
2022/06/01 07:22:57;;;;;;;31.75;29.55;;;;;;;25.25;100.00;101119.13;5066129;28;20045;-81
2022/06/01 07:25:24;;;;;;;29.27;27.25;;;;;;;25.35;100.00;101114.31;5067244;28;20049;-81
2022/06/01 07:27:54;;;;;;;31.38;29.05;;;;;;;25.55;100.00;101121.34;5070704;28;20044;-83
2022/06/01 07:30:21;;;;;;;31.85;29.38;;;;;;;24.98;100.00;101120.53;5071697;28;20058;-83
2022/06/01 07:32:48;;;;;;;31.30;28.70;;;;;;;24.88;100.00;101129.66;5061745;28;20056;-84
2022/06/01 07:35:17;;;;;;;32.67;30.45;;;;;;;24.68;100.00;101119.84;5068242;28;20040;-83
2022/06/01 07:43:31;;;;;;;34.17;31.58;;;;;;;24.83;100.00;101113.41;4988564;28;20064;-84
2022/06/01 07:45:58;;;;;;;31.58;29.20;;;;;;;24.62;100.00;101112.06;4988984;28;20121;-82
2022/06/01 07:48:24;;;;;;;31.55;29.38;;;;;;;24.71;100.00;101112.22;5025051;28;20045;-82
2022/06/01 07:50:51;;;;;;;30.77;28.55;;;;;;;25.01;100.00;101111.00;5065805;28;20060;-82
2022/06/01 07:53:18;;;;;;;33.13;30.35;;;;;;;25.73;100.00;101105.28;5070584;28;20133;-82
2022/06/01 07:55:45;;;;;;;31.67;29.13;;;;;;;25.54;100.00;101106.16;5066670;28;20048;-81
2022/06/01 07:58:12;;;;;;;33.47;30.27;;;;;;;25.87;100.00;101106.16;5066857;28;20109;-82
2022/06/01 08:00:40;;;;;;;32.13;29.88;;;;;;;25.53;100.00;101103.72;5072157;28;20122;-82
2022/06/01 08:03:11;;;;;;;37.47;34.88;;;;;;;26.00;100.00;101102.66;5066344;28;20053;-80
2022/06/01 08:05:38;;;;;;;40.35;37.60;;;;;;;26.40;100.00;101102.97;5063489;28;20056;-83
2022/06/01 08:08:05;;;;;;;35.97;33.42;;;;;;;26.04;100.00;101108.31;5065084;28;20055;-81
2022/06/01 08:10:32;;;;;;;32.75;30.45;;;;;;;26.01;100.00;101100.75;5069152;28;20052;-83
2022/06/01 08:13:08;;;;;;;32.97;30.10;;;;;;;26.10;100.00;101107.09;5065204;28;20053;-83
2022/06/01 08:15:36;;;;;;;30.88;28.70;;;;;;;25.90;100.00;101102.84;5062638;28;20053;-82
2022/06/01 08:18:05;;;;;;;29.13;27.02;;;;;;;25.54;100.00;101097.19;5066321;28;20052;-80
2022/06/01 08:20:32;;;;;;;34.05;31.60;;;;;;;26.60;100.00;101103.72;5069390;28;20105;-80
2022/06/01 08:23:00;;;;;;;33.03;30.48;;;;;;;26.33;100.00;101105.31;5069737;28;20461;-80
2022/06/01 08:25:28;;;;;;;32.85;30.45;;;;;;;26.78;100.00;101105.50;5061870;28;20049;-80
2022/06/01 08:27:54;;;;;;;31.10;28.77;;;;;;;26.36;100.00;101109.34;5068917;28;20048;-83
2022/06/01 08:30:23;;;;;;;32.33;29.52;;;;;;;26.46;100.00;101109.94;5068782;28;20075;-81
2022/06/01 08:32:50;;;;;;;31.63;29.13;;;;;;;26.74;100.00;101104.47;5067723;28;20404;-83
2022/06/01 08:35:21;;;;;;;32.58;30.10;;;;;;;27.00;100.00;101088.38;5068431;28;20114;-82
2022/06/01 08:37:48;;;;;;;32.10;29.70;;;;;;;26.06;100.00;101097.94;5065784;28;20075;-81
2022/06/01 08:40:18;;;;;;;34.33;31.90;;;;;;;26.78;100.00;101099.22;5062498;28;20045;-83
2022/06/01 08:42:52;;;;;;;32.03;29.00;;;;;;;26.83;100.00;101097.19;5066481;28;20053;-83
2022/06/01 08:45:22;;;;;;;30.88;28.50;;;;;;;26.77;100.00;101111.25;5065451;28;20049;-80
2022/06/01 08:47:49;;;;;;;31.27;28.70;;;;;;;26.85;100.00;101105.06;5064246;28;20476;-83
2022/06/01 08:50:24;;;;;;;32.72;29.30;;;;;;;26.59;100.00;101104.81;5064471;28;20488;-82
2022/06/01 08:52:52;;;;;;;30.65;28.52;;;;;;;26.20;100.00;101103.38;5066882;28;20045;-82
2022/06/01 08:55:19;;;;;;;31.77;29.55;;;;;;;26.69;100.00;101110.06;5067275;28;20102;-81
2022/06/01 08:57:53;;;;;;;31.13;28.65;;;;;;;26.62;100.00;101104.19;5063369;28;20543;-80
2022/06/01 09:00:21;;;;;;;31.17;28.75;;;;;;;26.03;100.00;101101.25;5066534;28;20118;-83
2022/06/01 09:03:08;;;;;;;30.98;28.65;;;;;;;26.74;100.00;101101.75;5067619;28;20067;-84
2022/06/01 09:05:44;;;;;;;36.85;34.28;;;;;;;25.48;100.00;101095.66;5069794;28;20057;-80
2022/06/01 09:08:17;;;;;;;36.40;33.78;;;;;;;26.25;100.00;101095.13;5068315;28;20155;-80
2022/06/01 09:10:59;;;;;;;38.42;35.65;;;;;;;26.90;100.00;101094.03;5068317;28;20420;-80
2022/06/01 09:13:32;;;;;;;34.08;31.77;;;;;;;26.64;100.00;101091.88;5063794;28;20056;-83
2022/06/01 09:16:03;;;;;;;34.78;32.35;;;;;;;27.10;100.00;101093.59;5065259;28;20037;-81
2022/06/01 09:18:41;;;;;;;34.65;32.17;;;;;;;27.36;100.00;101085.66;5066596;28;20469;-80
2022/06/01 09:24:07;;;;;;;31.52;29.10;;;;;;;28.04;100.00;101074.66;5066171;28;20114;-83
2022/06/01 09:26:34;;;;;;;33.63;31.17;;;;;;;26.56;100.00;101081.69;5063574;28;20048;-79
2022/06/01 09:29:02;;;;;;;31.42;29.30;;;;;;;27.13;100.00;101089.44;5063648;28;20056;-81
2022/06/01 09:31:37;;;;;;;33.60;31.20;;;;;;;26.20;100.00;101081.59;5068104;28;20460;-81
2022/06/01 09:34:22;;;;;;;36.65;33.95;;;;;;;26.72;100.00;101088.47;5072050;28;20136;-81
2022/06/01 09:36:55;;;;;;;37.60;34.22;;;;;;;26.92;100.00;101087.19;5063283;28;20055;-80
2022/06/01 09:39:22;;;;;;;35.17;32.58;;;;;;;27.60;100.00;101079.06;5067604;28;20057;-79
2022/06/01 09:41:49;;;;;;;32.67;30.05;;;;;;;28.05;100.00;101068.09;5065159;28;20060;-81
2022/06/01 09:44:18;;;;;;;35.13;32.75;;;;;;;28.00;100.00;101069.03;5067608;28;20057;-79
2022/06/01 09:46:56;;;;;;;33.40;31.10;;;;;;;28.50;100.00;101073.38;5068701;28;20040;-80
2022/06/01 09:49:25;;;;;;;35.42;32.63;;;;;;;28.99;100.00;101066.69;5064562;28;20451;-83
2022/06/01 09:51:57;;;;;;;32.70;30.00;;;;;;;28.60;100.00;101069.56;5064870;28;20052;-80
2022/06/01 09:54:30;;;;;;;30.73;28.35;;;;;;;28.82;100.00;101063.13;5066996;28;20431;-80
2022/06/01 09:56:58;;;;;;;30.48;28.10;;;;;;;29.03;100.00;101066.88;5064390;28;20040;-82
2022/06/01 10:08:04;;;;;;;30.77;28.42;;;;;;;28.87;100.00;101063.78;5065992;28;20508;-80
2022/06/01 10:10:31;;;;;;;31.02;28.67;;;;;;;29.14;95.69;101064.59;5069664;28;20530;-80
2022/06/01 10:13:00;;;;;;;30.65;28.60;;;;;;;28.17;99.04;101060.09;5069483;28;20055;-82
2022/06/01 10:15:42;;;;;;;32.00;29.90;;;;;;;28.44;100.00;101059.09;5066243;28;20052;-83
2022/06/01 10:18:13;;;;;;;29.58;27.52;;;;;;;27.67;98.73;101054.88;5068884;28;20049;-82
2022/06/01 10:20:46;;;;;;;31.95;29.83;;;;;;;27.26;100.00;101055.09;5066773;28;20109;-82
2022/06/01 10:23:20;;;;;;;32.03;29.73;;;;;;;29.31;100.00;101041.91;5068044;28;20136;-84
2022/06/01 10:25:52;;;;;;;32.85;30.75;;;;;;;28.91;91.75;101053.81;5070040;28;20052;-84
2022/06/01 10:28:21;;;;;;;;;;;;;;;29.92;100.00;101052.69;5066955;28;20044;-84
2022/06/01 10:30:52;;;;;;;33.22;31.13;;;;;;;29.87;94.39;101046.28;5067154;28;19920;-83
2022/06/01 10:33:28;;;;;;;35.88;33.80;;;;;;;29.53;89.54;101044.41;5068317;28;20121;-82
2022/06/01 10:36:00;;;;;;;35.15;32.50;;;;;;;29.99;93.16;101042.84;5070377;28;20049;-80
2022/06/01 10:38:38;;;;;;;34.27;31.97;;;;;;;29.05;94.65;101044.66;5066632;28;20110;-80
2022/06/01 10:41:08;;;;;;;32.83;30.52;;;;;;;28.80;97.92;101041.59;5065412;28;20056;-82
2022/06/01 10:43:46;;;;;;;32.85;30.52;;;;;;;29.08;93.95;101044.00;5066220;28;20443;-83
2022/06/01 10:46:34;;;;;;;33.53;31.02;;;;;;;29.48;90.09;101047.34;5066470;28;20393;-83
2022/06/01 10:49:15;;;;;;;33.75;31.35;;;;;;;28.81;87.63;101036.94;5068009;28;20045;-81
2022/06/01 10:51:46;;;;;;;32.95;30.75;;;;;;;28.90;96.51;101041.28;5065447;28;20440;-82
2022/06/01 10:54:22;;;;;;;28.73;26.55;;;;;;;30.26;91.90;101035.31;5066290;28;20416;-80
2022/06/01 10:56:50;;;;;;;29.00;27.10;;;;;;;29.77;93.33;101037.63;5067520;28;20045;-80
2022/06/01 10:59:18;;;;;;;28.70;26.52;;;;;;;29.79;83.35;101038.91;5066779;28;20435;-82
2022/06/01 11:02:00;;;;;;;28.63;26.73;;;;;;;27.89;91.92;101036.84;5066529;28;20055;-79
2022/06/01 11:04:44;;;;;;;;;;;;;;;27.68;96.30;101036.56;5066781;28;20400;-83
2022/06/01 11:07:38;;;;;;;28.80;26.90;;;;;;;28.49;99.05;101034.31;5056714;28;19921;-83
2022/06/01 11:10:17;;;;;;;29.27;27.17;;;;;;;28.01;90.93;101028.88;5064192;28;20044;-83
2022/06/01 11:12:55;;;;;;;27.85;26.15;;;;;;;28.63;100.00;101028.72;5057675;28;20059;-81
2022/06/01 11:15:30;;;;;;;29.23;27.15;;;;;;;28.40;92.95;101025.28;5062527;28;20048;-83
2022/06/01 11:18:08;;;;;;;28.10;26.25;;;;;;;27.84;100.00;101018.72;5063159;28;20048;-80
2022/06/01 11:20:54;;;;;;;28.17;26.08;;;;;;;28.41;98.28;101026.13;5063969;28;20060;-79
2022/06/01 11:23:37;;;;;;;28.35;26.60;;;;;;;27.95;94.34;101025.47;5068921;28;20129;-80
2022/06/01 11:26:11;;;;;;;28.15;26.45;;;;;;;29.35;90.16;101015.50;5061410;28;20057;-83
2022/06/01 11:29:11;;;;;;;31.85;29.65;;;;;;;29.48;79.88;101000.03;5064850;28;20519;-82
2022/06/01 11:31:41;;;;;;;28.95;27.27;;;;;;;28.97;81.87;101005.25;5062370;28;20053;-81
2022/06/01 11:34:14;;;;;;;29.02;27.13;;;;;;;29.59;88.62;101004.81;5066540;28;20060;-84
2022/06/01 11:36:51;;;;;;;28.58;26.40;;;;;;;30.28;83.38;101006.44;5065003;28;20048;-84
2022/06/01 11:39:29;;;;;;;31.15;28.92;;;;;;;29.92;74.78;101008.88;5061151;28;20055;-82
2022/06/01 11:42:04;;;;;;;32.13;29.92;;;;;;;31.00;66.06;101003.66;5064797;28;20052;-84
2022/06/01 11:44:35;;;;;;;29.48;27.27;;;;;;;30.91;69.56;100998.25;5065130;28;20436;-82
2022/06/01 11:47:05;;;;;;;29.42;27.35;;;;;;;30.15;69.08;100998.47;5063846;28;20098;-84
2022/06/01 11:49:35;;;;;;;29.25;27.35;;;;;;;29.50;85.24;100997.75;5061333;28;20048;-84
2022/06/01 11:52:34;;;;;;;30.48;28.58;;;;;;;28.16;84.56;100992.16;5069413;28;20102;-81